Time;durP1;ratioP1;P1;durP2;ratioP2;P2;SDS_P1;SDS_P2;PMS_P1;PMS_P2;Temp;Humidity;BMP_temperature;BMP_pressure;BME280_temperature;BME280_humidity;BME280_pressure;Samples;Min_cycle;Max_cycle;Signal;HPM_P1;HPM_P2
2022/01/26 00:05:43;;;;;;;54.85;24.20;;;4.80;90.00;;;;;;9172851;19;20015;-72
2022/01/26 00:07:41;;;;;;;47.67;22.52;;;4.70;89.90;;;;;;9181754;19;20018;-73
2022/01/26 00:10:46;;;;;;;49.42;22.80;;;4.70;90.00;;;;;;9186221;19;20018;-73
2022/01/26 00:13:54;;;;;;;56.85;23.13;;;4.70;90.00;;;;;;9182744;19;20018;-72
2022/01/26 00:17:00;;;;;;;48.83;21.25;;;4.70;90.00;;;;;;9186778;19;20500;-72
2022/01/26 00:20:14;;;;;;;49.25;22.40;;;4.70;90.30;;;;;;9184643;19;20011;-72
2022/01/26 00:23:46;;;;;;;54.58;22.48;;;4.70;90.00;;;;;;9184719;19;20472;-72
2022/01/26 00:40:23;;;;;;;45.03;22.50;;;4.60;90.00;;;;;;9182038;19;20018;-73
2022/01/26 00:43:28;;;;;;;51.90;23.52;;;4.60;90.00;;;;;;9183358;19;20015;-73
2022/01/26 00:46:37;;;;;;;48.63;22.75;;;4.60;90.00;;;;;;9185530;19;20099;-73
2022/01/26 00:49:43;;;;;;;47.72;22.58;;;4.60;90.00;;;;;;9185460;19;20392;-73
2022/01/26 00:52:53;;;;;;;55.17;24.73;;;4.60;90.00;;;;;;9183831;19;20018;-72
2022/01/26 00:56:18;;;;;;;53.90;25.45;;;4.60;90.00;;;;;;9187301;19;20070;-72
2022/01/26 00:59:23;;;;;;;60.88;25.98;;;4.60;90.00;;;;;;9183033;19;20022;-72
2022/01/26 01:02:32;;;;;;;58.75;25.58;;;4.60;90.00;;;;;;9183750;19;20010;-72
2022/01/26 01:05:43;;;;;;;57.70;24.92;;;4.60;90.00;;;;;;9181592;19;20019;-72
2022/01/26 01:08:48;;;;;;;61.33;26.00;;;4.60;90.00;;;;;;9183706;19;20023;-72
2022/01/26 01:11:56;;;;;;;61.40;26.48;;;4.60;90.00;;;;;;9184470;19;20073;-72
2022/01/26 01:15:02;;;;;;;52.75;24.30;;;4.50;90.00;;;;;;9182025;19;20053;-72
2022/01/26 01:18:15;;;;;;;57.67;25.75;;;4.60;90.00;;;;;;9182734;19;20019;-72
2022/01/26 01:28:22;;;;;;;58.42;23.83;;;4.50;90.00;;;;;;9181794;19;20048;-72
2022/01/26 01:31:42;;;;;;;55.53;23.13;;;4.50;90.00;;;;;;9186972;19;20469;-72
2022/01/26 01:34:49;;;;;;;56.05;24.58;;;4.50;90.00;;;;;;9184535;19;20018;-71
2022/01/26 01:37:55;;;;;;;57.17;24.88;;;4.50;90.00;;;;;;9181418;19;20399;-73
2022/01/26 01:41:00;;;;;;;60.05;25.13;;;4.50;90.00;;;;;;9181293;19;20015;-72
2022/01/26 01:44:06;;;;;;;61.03;24.52;;;4.50;90.00;;;;;;9181542;19;20014;-73
2022/01/26 01:47:12;;;;;;;59.90;25.10;;;4.50;90.00;;;;;;9185476;19;20011;-73
2022/01/26 01:50:19;;;;;;;57.45;23.80;;;4.50;90.00;;;;;;9185896;19;20010;-73
2022/01/26 01:53:32;;;;;;;55.53;23.30;;;4.40;89.90;;;;;;9181026;19;20007;-72
2022/01/26 01:56:39;;;;;;;66.30;25.90;;;4.40;90.00;;;;;;9181099;19;20019;-72
2022/01/26 01:59:45;;;;;;;63.88;25.17;;;4.40;90.00;;;;;;9181672;19;20022;-72
2022/01/26 02:02:53;;;;;;;55.95;23.75;;;4.40;90.00;;;;;;9182636;19;20838;-73
2022/01/26 02:06:01;;;;;;;59.65;26.00;;;4.40;90.00;;;;;;9180046;19;20014;-72
2022/01/26 02:09:07;;;;;;;57.25;25.45;;;4.40;90.00;;;;;;9181166;19;20015;-74
2022/01/26 02:12:18;;;;;;;59.05;26.42;;;4.40;90.00;;;;;;9181369;19;20030;-72
2022/01/26 02:15:28;;;;;;;56.83;25.20;;;4.40;90.00;;;;;;9183272;19;20025;-72
2022/01/26 02:18:48;;;;;;;61.50;25.40;;;4.40;90.00;;;;;;9182263;19;20018;-72
2022/01/26 02:52:01;;;;;;;70.10;26.80;;;4.30;90.00;;;;;;9182499;19;20014;-72
2022/01/26 02:55:33;;;;;;;62.40;26.45;;;4.30;90.00;;;;;;9178919;19;20038;-72
2022/01/26 02:58:52;;;;;;;65.93;27.42;;;4.20;90.00;;;;;;9180659;19;20018;-72
2022/01/26 03:02:00;;;;;;;65.25;26.13;;;4.20;90.00;;;;;;9178314;19;20518;-73
2022/01/26 03:05:09;;;;;;;72.30;26.98;;;4.20;90.00;;;;;;9176928;19;20519;-72
2022/01/26 03:08:27;;;;;;;68.75;29.23;;;4.20;90.00;;;;;;9179982;19;20024;-73
2022/01/26 03:11:38;;;;;;;67.25;27.50;;;4.20;90.00;;;;;;9180967;19;20362;-72
2022/01/26 03:14:48;;;;;;;70.30;27.63;;;4.20;90.00;;;;;;9177992;19;20074;-72
2022/01/26 03:21:19;;;;;;;69.28;27.55;;;4.20;90.10;;;;;;9176082;19;20011;-72
2022/01/26 03:34:21;;;;;;;66.65;27.20;;;4.20;90.10;;;;;;9178653;19;20018;-72
2022/01/26 03:37:31;;;;;;;72.55;26.50;;;4.10;90.00;;;;;;9179684;19;20022;-73
2022/01/26 03:40:41;;;;;;;65.97;26.98;;;4.10;90.00;;;;;;9174266;19;20472;-73
2022/01/26 03:43:53;;;;;;;66.78;26.45;;;4.10;90.00;;;;;;9177316;19;20010;-72
2022/01/26 03:46:59;;;;;;;61.22;23.63;;;4.10;90.00;;;;;;9177829;19;20013;-73
2022/01/26 03:50:06;;;;;;;65.97;25.88;;;4.10;90.00;;;;;;9179296;19;20907;-72
2022/01/26 03:53:11;;;;;;;65.72;27.75;;;4.00;90.00;;;;;;9178609;19;20014;-72
2022/01/26 03:56:16;;;;;;;66.13;26.65;;;4.00;90.00;;;;;;9175861;19;20098;-72
2022/01/26 03:59:24;;;;;;;67.28;25.63;;;4.00;90.00;;;;;;9176293;19;20011;-73
2022/01/26 04:02:29;;;;;;;63.22;25.05;;;4.00;90.00;;;;;;9179409;19;20021;-72
2022/01/26 04:05:35;;;;;;;56.28;23.33;;;4.00;90.00;;;;;;9175295;19;20015;-73
2022/01/26 04:08:42;;;;;;;60.70;23.75;;;4.00;90.00;;;;;;9177410;19;20044;-72
2022/01/26 04:11:50;;;;;;;60.47;22.90;;;4.00;90.00;;;;;;9174072;19;20025;-72
2022/01/26 04:15:06;;;;;;;63.55;25.80;;;4.00;90.00;;;;;;9174317;19;20476;-72
2022/01/26 04:18:15;;;;;;;63.75;24.25;;;4.00;90.00;;;;;;9176766;19;20018;-72
2022/01/26 04:21:28;;;;;;;62.03;24.67;;;4.00;90.00;;;;;;9178213;19;20014;-73
2022/01/26 04:24:37;;;;;;;60.78;24.83;;;4.00;90.00;;;;;;9180034;19;20014;-72
2022/01/26 04:27:47;;;;;;;65.47;24.98;;;4.00;90.00;;;;;;9175688;19;20010;-72
2022/01/26 04:30:54;;;;;;;59.92;24.30;;;3.90;90.00;;;;;;9174658;19;20049;-72
2022/01/26 04:34:03;;;;;;;63.78;25.90;;;3.90;90.00;;;;;;9176721;19;20014;-72
2022/01/26 04:37:16;;;;;;;66.03;25.10;;;3.90;90.00;;;;;;9177486;19;20481;-72
2022/01/26 04:40:22;;;;;;;63.13;24.45;;;3.90;90.00;;;;;;9179730;19;20014;-73
2022/01/26 04:43:32;;;;;;;65.85;25.67;;;3.90;90.00;;;;;;9174681;19;20384;-72
2022/01/26 04:46:40;;;;;;;63.20;24.35;;;3.90;90.00;;;;;;9174147;19;20022;-72
2022/01/26 04:49:46;;;;;;;68.18;26.85;;;3.80;90.00;;;;;;9175298;19;20017;-72
2022/01/26 04:52:51;;;;;;;67.82;24.73;;;3.80;90.10;;;;;;9184344;19;20017;-73
2022/01/26 04:55:57;;;;;;;67.75;25.02;;;3.90;90.10;;;;;;9183123;19;20019;-73
2022/01/26 04:59:02;;;;;;;64.03;24.00;;;3.80;90.10;;;;;;9182840;19;20052;-72
2022/01/26 05:02:09;;;;;;;61.75;24.42;;;3.80;90.10;;;;;;9182922;19;20050;-73
2022/01/26 05:05:15;;;;;;;61.70;23.98;;;3.80;90.10;;;;;;9180441;19;20022;-73
2022/01/26 05:08:21;;;;;;;59.40;24.33;;;3.90;90.10;;;;;;9184758;19;20021;-72
2022/01/26 05:11:34;;;;;;;57.92;23.63;;;3.80;90.10;;;;;;9185780;19;20392;-72
2022/01/26 05:14:44;;;;;;;59.83;24.08;;;3.90;90.10;;;;;;9186901;19;20444;-73
2022/01/26 05:17:52;;;;;;;59.67;21.58;;;3.90;90.10;;;;;;9183237;19;20044;-72
2022/01/26 05:20:57;;;;;;;60.40;23.88;;;3.80;90.00;;;;;;9182956;19;20397;-73
2022/01/26 05:24:02;;;;;;;56.55;22.52;;;3.80;90.10;;;;;;9184391;19;20018;-72
2022/01/26 05:27:08;;;;;;;57.10;21.95;;;3.80;90.10;;;;;;9186547;19;20010;-72
2022/01/26 05:30:13;;;;;;;53.33;20.83;;;3.90;90.10;;;;;;9181403;19;20015;-73
2022/01/26 05:33:23;;;;;;;51.65;21.00;;;3.80;90.10;;;;;;9182035;19;20022;-72
2022/01/26 05:36:29;;;;;;;48.75;19.40;;;3.80;90.10;;;;;;9182499;19;19994;-73
2022/01/26 05:39:36;;;;;;;52.33;19.70;;;3.80;90.10;;;;;;9184678;19;20010;-73
2022/01/26 05:42:42;;;;;;;47.17;18.67;;;3.80;90.10;;;;;;9185642;19;20459;-72
2022/01/26 05:45:50;;;;;;;51.72;19.05;;;3.80;90.50;;;;;;9181184;19;20070;-73
2022/01/26 05:48:58;;;;;;;47.40;17.98;;;3.80;90.10;;;;;;9181120;19;20011;-73
2022/01/26 05:52:03;;;;;;;49.20;18.60;;;3.80;90.10;;;;;;9183226;19;20116;-72
2022/01/26 05:55:09;;;;;;;50.05;19.17;;;3.80;90.10;;;;;;9184271;19;20022;-73
2022/01/26 05:58:14;;;;;;;49.88;19.17;;;3.80;90.10;;;;;;9184848;19;20365;-72
2022/01/26 06:01:21;;;;;;;50.80;18.92;;;3.90;90.10;;;;;;9181285;19;20054;-73
2022/01/26 06:04:29;;;;;;;46.00;17.33;;;3.90;90.20;;;;;;9177131;19;20033;-71
2022/01/26 06:07:34;;;;;;;44.05;18.10;;;3.90;90.20;;;;;;9183497;19;20002;-72
2022/01/26 06:10:39;;;;;;;46.53;17.98;;;3.90;90.10;;;;;;9183523;19;20022;-72
2022/01/26 06:13:46;;;;;;;42.67;16.10;;;3.90;90.20;;;;;;9182406;19;20026;-72
2022/01/26 06:16:51;;;;;;;40.50;16.85;;;3.90;90.20;;;;;;9180532;19;20015;-73
2022/01/26 06:19:59;;;;;;;43.13;16.48;;;3.90;90.20;;;;;;9181661;19;20014;-72
2022/01/26 06:23:06;;;;;;;35.55;14.80;;;3.90;90.10;;;;;;9180904;19;20018;-72
2022/01/26 06:26:11;;;;;;;36.15;14.60;;;3.90;90.20;;;;;;9181991;19;20017;-73
2022/01/26 06:29:16;;;;;;;34.80;14.65;;;3.90;90.20;;;;;;9183770;19;20392;-72
2022/01/26 06:32:24;;;;;;;38.83;14.85;;;3.90;90.20;;;;;;9179632;19;20466;-72
2022/01/26 06:35:34;;;;;;;39.88;14.90;;;3.90;90.20;;;;;;9178585;19;20468;-73
2022/01/26 06:38:39;;;;;;;36.95;14.23;;;3.90;90.20;;;;;;9180648;19;20090;-72
2022/01/26 06:41:49;;;;;;;32.58;14.02;;;3.90;90.20;;;;;;9181904;19;20358;-73
2022/01/26 06:45:07;;;;;;;42.05;15.68;;;3.90;90.20;;;;;;9183318;19;20480;-72
2022/01/26 06:51:38;;;;;;;41.03;15.63;;;3.90;90.20;;;;;;9177495;19;20014;-73
2022/01/26 06:54:43;;;;;;;38.35;15.18;;;3.90;90.20;;;;;;9179582;19;20006;-72
2022/01/26 06:57:49;;;;;;;42.85;16.15;;;3.90;90.20;;;;;;9179705;19;20014;-72
2022/01/26 07:00:54;;;;;;;34.08;14.70;;;3.90;90.20;;;;;;9179279;19;20015;-72
2022/01/26 07:03:59;;;;;;;37.45;15.20;;;3.90;90.20;;;;;;9181971;19;20007;-73
2022/01/26 07:07:07;;;;;;;34.95;14.30;;;3.90;90.20;;;;;;9176919;19;20010;-72
2022/01/26 07:10:13;;;;;;;37.58;14.25;;;3.90;90.20;;;;;;9176495;19;20022;-72
2022/01/26 07:13:18;;;;;;;37.72;14.85;;;3.90;90.20;;;;;;9173264;19;20018;-73
2022/01/26 07:19:54;;;;;;;39.50;14.68;;;3.90;90.20;;;;;;9177811;19;20505;-72
2022/01/26 07:23:01;;;;;;;37.55;15.57;;;3.90;90.20;;;;;;9175763;19;20018;-73
2022/01/26 07:26:09;;;;;;;47.55;18.08;;;3.90;90.20;;;;;;9174747;19;20030;-72
2022/01/26 07:29:21;;;;;;;45.80;17.67;;;3.90;90.20;;;;;;9173278;19;20014;-72
2022/01/26 07:32:28;;;;;;;42.95;17.50;;;3.90;90.20;;;;;;9172855;19;20019;-72
2022/01/26 07:35:34;;;;;;;44.72;18.27;;;3.90;90.20;;;;;;9177423;19;20025;-72
2022/01/26 07:38:42;;;;;;;46.65;19.50;;;3.90;90.20;;;;;;9178732;19;20435;-73
2022/01/26 07:41:47;;;;;;;53.15;21.15;;;3.90;90.20;;;;;;9178387;19;20780;-73
2022/01/26 07:44:52;;;;;;;50.45;22.05;;;3.90;90.20;;;;;;9177902;19;20007;-74
2022/01/26 07:47:57;;;;;;;56.17;22.98;;;3.90;90.20;;;;;;9179617;19;20076;-72
2022/01/26 07:51:03;;;;;;;56.58;23.52;;;3.90;90.20;;;;;;9180189;19;20056;-72
2022/01/26 07:54:10;;;;;;;61.80;24.75;;;3.90;90.20;;;;;;9178322;19;20018;-72
2022/01/26 07:57:15;;;;;;;63.55;26.10;;;3.90;90.20;;;;;;9171966;19;20015;-73
2022/01/26 08:00:21;;;;;;;62.05;26.02;;;3.90;90.20;;;;;;9175394;19;20018;-72
2022/01/26 08:03:32;;;;;;;65.38;27.45;;;3.90;90.20;;;;;;9176492;19;20368;-72
2022/01/26 08:06:39;;;;;;;77.30;27.40;;;3.90;90.20;;;;;;9166346;19;20011;-72
2022/01/26 08:09:46;;;;;;;65.45;28.75;;;3.90;90.20;;;;;;9175838;19;20026;-72
2022/01/26 08:12:51;;;;;;;70.63;28.38;;;3.90;90.20;;;;;;9173732;19;20094;-71
2022/01/26 08:16:01;;;;;;;66.32;28.58;;;3.90;90.20;;;;;;9176347;19;20468;-73
2022/01/26 08:19:07;;;;;;;73.18;30.63;;;3.90;90.20;;;;;;9180891;19;20015;-72
2022/01/26 08:22:18;;;;;;;84.93;32.15;;;4.00;90.30;;;;;;9178403;19;20018;-73
2022/01/26 08:25:28;;;;;;;73.43;31.02;;;4.00;90.30;;;;;;9174965;19;20014;-72
2022/01/26 08:28:37;;;;;;;80.05;31.05;;;3.90;90.20;;;;;;9183307;19;20014;-72
2022/01/26 08:31:42;;;;;;;76.35;33.03;;;4.00;90.30;;;;;;9187391;19;20021;-73
2022/01/26 08:34:47;;;;;;;90.00;34.60;;;4.00;90.30;;;;;;9188056;19;20058;-72
2022/01/26 08:37:52;;;;;;;85.85;35.28;;;4.00;90.30;;;;;;9187073;19;20078;-72
2022/01/26 08:41:00;;;;;;;83.38;35.17;;;4.00;90.30;;;;;;9185412;19;20336;-72
2022/01/26 08:44:06;;;;;;;85.00;36.63;;;4.00;90.30;;;;;;9183972;19;20019;-70
2022/01/26 08:47:11;;;;;;;85.47;35.88;;;4.00;90.30;;;;;;9183952;19;20538;-72
2022/01/26 08:50:16;;;;;;;85.30;35.67;;;4.00;90.30;;;;;;9186373;19;20342;-72
2022/01/26 08:53:21;;;;;;;86.50;35.60;;;4.00;90.30;;;;;;9187287;19;20044;-72
2022/01/26 08:56:29;;;;;;;86.30;36.92;;;4.00;90.30;;;;;;9180573;19;20029;-73
2022/01/26 08:59:34;;;;;;;92.28;38.47;;;4.00;90.30;;;;;;9182694;19;20380;-74
2022/01/26 09:02:40;;;;;;;87.00;36.45;;;4.00;90.30;;;;;;9183880;19;20014;-72
2022/01/26 09:05:45;;;;;;;92.60;38.25;;;4.00;90.30;;;;;;9182487;19;20495;-74
2022/01/26 09:08:58;;;;;;;90.30;36.75;;;4.00;90.40;;;;;;9180951;19;20025;-73
2022/01/26 09:12:07;;;;;;;86.90;36.90;;;4.00;90.30;;;;;;9178249;19;20029;-74
2022/01/26 09:15:14;;;;;;;86.70;37.67;;;4.00;90.30;;;;;;9179265;19;20007;-74
2022/01/26 09:18:30;;;;;;;88.32;36.97;;;4.10;90.40;;;;;;9177642;19;20022;-74
2022/01/26 09:21:36;;;;;;;88.22;36.35;;;4.10;90.40;;;;;;9183683;19;20078;-75
2022/01/26 09:24:42;;;;;;;85.90;36.40;;;4.10;90.40;;;;;;9185243;19;20353;-74
2022/01/26 09:27:50;;;;;;;87.57;36.92;;;4.10;90.40;;;;;;9179692;19;20026;-74
2022/01/26 09:30:55;;;;;;;94.70;37.67;;;4.10;90.40;;;;;;9180870;19;20361;-72
2022/01/26 09:34:00;;;;;;;90.75;36.90;;;4.10;90.40;;;;;;9182167;19;20015;-74
2022/01/26 09:37:06;;;;;;;84.65;37.05;;;4.20;90.50;;;;;;9180562;19;20011;-74
2022/01/26 09:40:12;;;;;;;90.90;36.92;;;4.20;90.40;;;;;;9178194;19;20011;-74
2022/01/26 09:43:21;;;;;;;89.38;36.42;;;4.20;90.50;;;;;;9178695;19;20025;-73
2022/01/26 09:46:26;;;;;;;86.00;37.30;;;4.20;90.50;;;;;;9178921;19;20074;-75
2022/01/26 09:49:33;;;;;;;80.93;34.55;;;4.20;90.50;;;;;;9179969;19;20040;-75
2022/01/26 09:52:45;;;;;;;86.72;36.20;;;4.30;90.50;;;;;;9180364;19;20425;-72
2022/01/26 09:55:51;;;;;;;84.90;34.78;;;4.20;90.50;;;;;;9182007;19;20014;-73
2022/01/26 09:58:58;;;;;;;84.18;35.95;;;4.30;90.50;;;;;;9178580;19;20010;-74
2022/01/26 10:02:04;;;;;;;83.60;34.65;;;4.30;90.50;;;;;;9181093;19;20015;-74
2022/01/26 10:05:17;;;;;;;83.57;35.13;;;4.30;90.50;;;;;;9173213;19;20018;-74
2022/01/26 10:08:49;;;;;;;94.45;37.58;;;4.40;90.60;;;;;;9182125;19;20015;-75
2022/01/26 10:15:34;;;;;;;90.28;37.38;;;4.40;90.50;;;;;;9183057;19;20348;-73
2022/01/26 10:18:39;;;;;;;93.50;36.17;;;4.40;90.60;;;;;;9178117;19;20011;-75
2022/01/26 10:21:48;;;;;;;94.10;37.05;;;4.40;90.80;;;;;;9178838;19;20379;-74
2022/01/26 10:25:05;;;;;;;82.78;35.38;;;4.50;90.60;;;;;;9179392;19;20034;-73
2022/01/26 10:28:41;;;;;;;81.93;34.47;;;4.50;90.60;;;;;;9179695;19;20003;-74
2022/01/26 10:31:48;;;;;;;88.35;34.97;;;4.50;90.60;;;;;;9181363;19;20349;-75
2022/01/26 10:35:01;;;;;;;87.28;35.33;;;4.50;90.60;;;;;;9181404;19;20018;-75
2022/01/26 10:38:07;;;;;;;85.40;35.42;;;4.50;90.60;;;;;;9179864;19;20014;-73
2022/01/26 10:41:21;;;;;;;85.78;34.75;;;4.60;90.60;;;;;;9176754;19;20014;-74
2022/01/26 10:44:32;;;;;;;94.15;36.35;;;4.60;90.60;;;;;;9177740;19;20018;-74
2022/01/26 10:47:45;;;;;;;88.05;34.70;;;4.60;90.60;;;;;;9174106;19;20090;-74
2022/01/26 10:51:21;;;;;;;89.78;36.13;;;4.60;90.70;;;;;;9176956;19;20601;-73
2022/01/26 10:54:36;;;;;;;85.03;32.50;;;4.60;90.60;;;;;;9177721;19;20022;-74
2022/01/26 10:57:41;;;;;;;84.97;33.33;;;4.60;90.60;;;;;;9174583;19;20026;-74
2022/01/26 11:00:46;;;;;;;79.63;32.85;;;4.70;90.70;;;;;;9176319;19;20317;-75
2022/01/26 11:03:54;;;;;;;83.72;33.05;;;4.70;90.70;;;;;;9176663;19;20018;-74
2022/01/26 11:06:59;;;;;;;80.22;31.65;;;4.70;90.70;;;;;;9172728;19;20472;-74
2022/01/26 11:10:07;;;;;;;83.35;33.92;;;4.70;90.70;;;;;;9173379;19;20026;-74
2022/01/26 11:13:12;;;;;;;74.55;31.48;;;4.80;90.70;;;;;;9174864;19;20015;-74
2022/01/26 11:16:19;;;;;;;78.38;31.73;;;4.80;90.70;;;;;;9175874;19;20025;-74
2022/01/26 11:19:27;;;;;;;79.95;32.05;;;4.80;90.70;;;;;;9175080;19;20014;-74
2022/01/26 11:22:34;;;;;;;76.22;32.15;;;4.80;90.70;;;;;;9172219;19;20026;-75
2022/01/26 11:25:43;;;;;;;71.50;31.25;;;4.80;90.70;;;;;;9174755;19;20057;-74
2022/01/26 11:28:48;;;;;;;73.60;30.50;;;4.80;90.70;;;;;;9175864;19;20787;-74
2022/01/26 11:32:06;;;;;;;70.55;30.17;;;4.80;90.70;;;;;;9170833;19;20015;-73
2022/01/26 11:35:15;;;;;;;72.55;29.27;;;4.90;90.70;;;;;;9170647;19;20025;-73
2022/01/26 11:39:13;;;;;;;66.05;28.10;;;4.90;90.70;;;;;;9171860;19;20023;-74
2022/01/26 11:42:18;;;;;;;74.53;29.98;;;4.90;91.00;;;;;;9171538;19;20027;-73
2022/01/26 11:45:34;;;;;;;63.80;26.77;;;4.90;90.70;;;;;;9174810;19;20048;-73
2022/01/26 11:48:40;;;;;;;66.07;28.27;;;5.00;90.70;;;;;;9173535;19;20010;-73
2022/01/26 11:51:50;;;;;;;64.75;27.75;;;5.00;90.70;;;;;;9174592;19;20416;-74
2022/01/26 11:54:59;;;;;;;64.45;27.98;;;5.00;90.70;;;;;;9172371;19;20022;-73
2022/01/26 11:58:13;;;;;;;68.60;27.50;;;5.00;90.70;;;;;;9173112;19;20957;-74
2022/01/26 12:01:23;;;;;;;60.42;26.90;;;5.00;90.70;;;;;;9167558;19;20538;-73
2022/01/26 12:04:31;;;;;;;60.42;26.65;;;5.00;90.70;;;;;;9178932;19;20048;-73
2022/01/26 12:07:48;;;;;;;57.08;25.73;;;5.10;90.70;;;;;;9183426;19;20119;-73
2022/01/26 12:10:53;;;;;;;60.30;26.05;;;5.10;90.70;;;;;;9183783;19;20014;-73
2022/01/26 12:14:01;;;;;;;60.00;26.88;;;5.10;90.70;;;;;;9177298;19;20598;-72
2022/01/26 12:17:12;;;;;;;55.72;25.30;;;5.10;90.70;;;;;;9180598;19;20025;-74
2022/01/26 12:34:27;;;;;;;46.65;21.83;;;5.20;90.70;;;;;;9182101;19;20037;-75
2022/01/26 12:37:51;;;;;;;50.65;22.10;;;5.20;90.70;;;;;;9180880;19;20014;-74
2022/01/26 12:44:17;;;;;;;51.33;20.13;;;5.20;90.70;;;;;;9179738;19;20018;-73
2022/01/26 12:47:26;;;;;;;44.70;20.10;;;5.20;90.70;;;;;;9181151;19;20025;-72
2022/01/26 12:50:31;;;;;;;42.55;19.98;;;5.20;90.70;;;;;;9182088;19;20025;-74
2022/01/26 12:53:38;;;;;;;50.85;21.50;;;5.20;90.70;;;;;;9181012;19;20026;-73
2022/01/26 12:56:45;;;;;;;46.55;21.10;;;5.30;90.80;;;;;;9180562;19;20022;-73
2022/01/26 13:00:01;;;;;;;48.65;20.67;;;5.30;90.70;;;;;;9177492;19;20477;-73
2022/01/26 13:03:12;;;;;;;44.03;20.20;;;5.30;90.70;;;;;;9180675;19;20010;-73
2022/01/26 13:06:23;;;;;;;46.78;20.33;;;5.30;90.70;;;;;;9175592;19;20025;-73
2022/01/26 13:09:30;;;;;;;46.08;19.98;;;5.40;90.70;;;;;;9177868;19;20108;-74
2022/01/26 13:12:38;;;;;;;44.53;20.02;;;5.40;90.70;;;;;;9179943;19;20029;-74
2022/01/26 13:15:49;;;;;;;47.80;18.67;;;5.40;90.70;;;;;;9178770;19;20010;-73
2022/01/26 13:19:12;;;;;;;42.03;20.02;;;5.40;90.70;;;;;;9178421;19;20040;-74
2022/01/26 13:22:41;;;;;;;53.55;19.17;;;5.50;90.70;;;;;;9176697;19;20025;-73
2022/01/26 13:26:03;;;;;;;42.33;19.45;;;5.50;90.70;;;;;;9178486;19;20015;-73
2022/01/26 13:29:29;;;;;;;43.85;18.95;;;5.50;90.70;;;;;;9179731;19;20034;-73
2022/01/26 13:33:10;;;;;;;41.00;19.27;;;5.50;90.70;;;;;;9180262;19;20019;-75
2022/01/26 13:36:30;;;;;;;45.13;18.17;;;5.50;90.70;;;;;;9181345;19;20029;-73
2022/01/26 13:43:35;;;;;;;37.33;17.15;;;5.50;90.70;;;;;;9177960;19;20487;-74
2022/01/26 13:50:11;;;;;;;38.15;16.92;;;5.60;90.70;;;;;;9174935;19;20496;-73
2022/01/26 13:53:19;;;;;;;40.55;17.80;;;5.60;90.70;;;;;;9175767;19;20022;-74
2022/01/26 13:56:38;;;;;;;43.60;18.67;;;5.60;90.70;;;;;;9177566;19;20011;-73
2022/01/26 13:59:50;;;;;;;39.78;17.60;;;5.60;90.70;;;;;;9175053;19;20826;-74
2022/01/26 14:03:01;;;;;;;40.08;17.20;;;5.60;90.70;;;;;;9175879;19;20026;-74
2022/01/26 14:06:06;;;;;;;38.67;16.35;;;5.60;90.70;;;;;;9176483;19;20034;-73
2022/01/26 14:09:12;;;;;;;35.15;16.38;;;5.60;90.70;;;;;;9174321;19;20018;-75
2022/01/26 14:12:22;;;;;;;39.80;17.88;;;5.60;90.70;;;;;;9178744;19;20661;-74
2022/01/26 14:15:38;;;;;;;34.28;16.98;;;5.70;90.70;;;;;;9178157;19;20045;-74
2022/01/26 14:25:26;;;;;;;38.65;16.45;;;5.70;90.80;;;;;;9182454;19;19926;-73
2022/01/26 14:28:35;;;;;;;46.13;19.45;;;5.70;90.80;;;;;;9179223;19;20025;-73
2022/01/26 14:31:57;;;;;;;43.05;19.13;;;5.70;90.80;;;;;;9179975;19;20017;-74
2022/01/26 14:35:21;;;;;;;41.90;19.00;;;5.70;90.80;;;;;;9181100;19;20022;-74
2022/01/26 15:08:55;;;;;;;37.70;17.67;;;5.80;90.70;;;;;;9175790;19;20029;-73
2022/01/26 15:35:41;;;;;;;48.67;19.55;;;5.80;90.80;;;;;;9175782;19;20040;-74
2022/01/26 15:49:07;;;;;;;42.28;17.08;;;5.80;90.80;;;;;;9174665;19;20049;-74
2022/01/26 15:52:30;;;;;;;39.50;18.42;;;5.80;90.80;;;;;;9174509;19;20502;-74
2022/01/26 15:59:17;;;;;;;38.15;18.23;;;5.70;90.80;;;;;;9173875;19;20467;-74
2022/01/26 16:39:08;;;;;;;38.33;18.95;;;5.80;90.90;;;;;;9172266;19;20019;-74
2022/01/26 17:03:03;;;;;;;42.22;19.73;;;5.70;90.90;;;;;;9185032;19;20018;-74
2022/01/26 18:15:52;;;;;;;38.85;19.83;;;5.70;91.20;;;;;;9178681;19;20022;-75
2022/01/26 18:26:06;;;;;;;45.15;20.75;;;5.60;91.20;;;;;;9177340;19;20089;-75
2022/01/26 18:32:44;;;;;;;36.78;20.00;;;5.70;91.20;;;;;;9174191;19;20721;-75
2022/01/26 18:39:40;;;;;;;40.78;19.42;;;5.70;91.20;;;;;;9177710;19;20018;-75
2022/01/26 18:49:44;;;;;;;36.95;19.95;;;5.70;91.30;;;;;;9176770;19;20074;-75
2022/01/26 18:52:52;;;;;;;43.35;19.77;;;5.70;91.30;;;;;;9174229;19;20014;-74
2022/01/26 18:56:00;;;;;;;41.80;21.40;;;5.70;91.30;;;;;;9174440;19;20029;-74
2022/01/26 18:59:10;;;;;;;37.33;20.17;;;5.70;91.30;;;;;;9175370;19;20687;-75
2022/01/26 19:02:22;;;;;;;41.80;20.60;;;5.70;91.30;;;;;;9177434;19;20014;-73
2022/01/26 19:05:48;;;;;;;36.42;18.58;;;5.70;91.30;;;;;;9174112;19;20695;-74
2022/01/26 19:08:53;;;;;;;43.53;20.80;;;5.70;91.30;;;;;;9174576;19;21041;-74
2022/01/26 19:12:01;;;;;;;42.60;21.02;;;5.70;91.30;;;;;;9173816;19;20026;-74
2022/01/26 19:15:11;;;;;;;41.83;20.50;;;5.70;91.30;;;;;;9176102;19;20014;-73
2022/01/26 19:18:25;;;;;;;40.20;20.30;;;5.70;91.30;;;;;;9174862;19;20532;-74
2022/01/26 19:21:46;;;;;;;38.65;19.48;;;5.70;91.30;;;;;;9175802;19;20471;-76
2022/01/26 19:24:59;;;;;;;45.95;21.65;;;5.70;91.30;;;;;;9176406;19;20018;-74
2022/01/26 19:28:12;;;;;;;41.95;21.20;;;5.70;91.30;;;;;;9177396;19;20021;-73
2022/01/26 19:44:43;;;;;;;40.75;20.60;;;5.70;91.30;;;;;;9174724;19;20090;-75
2022/01/26 19:51:03;;;;;;;42.55;23.33;;;5.70;91.30;;;;;;9173020;19;20019;-75
2022/01/26 19:54:08;;;;;;;43.83;21.90;;;5.70;91.30;;;;;;9171458;19;20011;-75
2022/01/26 19:57:13;;;;;;;41.30;23.17;;;5.70;91.30;;;;;;9173698;19;20054;-74
2022/01/26 20:00:19;;;;;;;43.95;22.95;;;5.70;91.30;;;;;;9175033;19;20025;-74
2022/01/26 20:03:24;;;;;;;41.85;22.52;;;5.70;91.30;;;;;;9173911;19;20014;-75
2022/01/26 20:06:32;;;;;;;44.55;22.73;;;5.70;91.30;;;;;;9168312;19;20010;-75
2022/01/26 20:09:41;;;;;;;49.63;22.85;;;5.70;91.30;;;;;;9172601;19;20660;-73
2022/01/26 20:12:48;;;;;;;43.40;22.77;;;5.70;91.30;;;;;;9174652;19;20100;-74
2022/01/26 20:15:53;;;;;;;42.45;23.30;;;5.70;91.30;;;;;;9173661;19;20418;-74
2022/01/26 20:18:58;;;;;;;47.92;24.38;;;5.70;91.30;;;;;;9176324;19;20023;-75
2022/01/26 20:22:08;;;;;;;49.30;23.60;;;5.70;91.40;;;;;;9173125;19;20020;-73
2022/01/26 20:25:16;;;;;;;47.15;23.70;;;5.70;91.30;;;;;;9179170;19;20033;-75
2022/01/26 20:28:24;;;;;;;50.53;24.90;;;5.70;91.30;;;;;;9179730;19;20014;-75
2022/01/26 20:31:29;;;;;;;46.72;25.67;;;5.60;91.30;;;;;;9182864;19;20022;-73
2022/01/26 20:34:34;;;;;;;51.40;25.60;;;5.70;91.30;;;;;;9182177;19;20022;-74
2022/01/26 20:37:42;;;;;;;48.75;25.70;;;5.70;91.40;;;;;;9180312;19;20523;-74
2022/01/26 20:40:49;;;;;;;52.30;25.02;;;5.70;91.40;;;;;;9176967;19;20556;-75
2022/01/26 20:43:54;;;;;;;47.42;25.65;;;5.70;91.40;;;;;;9181302;19;20011;-73
2022/01/26 20:46:59;;;;;;;49.70;25.30;;;5.70;91.30;;;;;;9181931;19;20018;-74
2022/01/26 20:50:06;;;;;;;56.13;26.23;;;5.70;91.30;;;;;;9181890;19;20020;-74
2022/01/26 20:53:13;;;;;;;46.65;24.13;;;5.60;91.30;;;;;;9178431;19;20015;-73
2022/01/26 20:56:19;;;;;;;50.85;24.77;;;5.70;91.30;;;;;;9177976;19;20014;-74
2022/01/26 20:59:27;;;;;;;51.17;26.23;;;5.70;91.30;;;;;;9181567;19;20049;-74
2022/01/26 21:02:32;;;;;;;48.05;25.40;;;5.60;91.30;;;;;;9180133;19;20018;-75
2022/01/26 21:05:37;;;;;;;43.28;23.20;;;5.70;91.40;;;;;;9177719;19;20034;-74
2022/01/26 21:08:48;;;;;;;46.55;23.50;;;5.60;91.30;;;;;;9177308;19;20025;-75
2022/01/26 21:11:53;;;;;;;45.60;23.60;;;5.60;91.30;;;;;;9179510;19;20421;-74
2022/01/26 21:14:59;;;;;;;46.83;22.85;;;5.60;91.30;;;;;;9179397;19;20510;-75
2022/01/26 21:18:05;;;;;;;42.67;23.00;;;5.60;91.30;;;;;;9180752;19;20024;-74
2022/01/26 21:21:10;;;;;;;55.80;24.05;;;5.60;91.30;;;;;;9178426;19;20018;-75
2022/01/26 21:24:18;;;;;;;43.33;22.02;;;5.60;91.30;;;;;;9179704;19;20045;-75
2022/01/26 21:27:23;;;;;;;42.35;22.10;;;5.60;91.30;;;;;;9182235;19;20025;-74
2022/01/26 21:30:28;;;;;;;44.95;22.52;;;5.60;91.30;;;;;;9180006;19;20107;-74
2022/01/26 21:33:35;;;;;;;47.67;21.70;;;5.60;91.30;;;;;;9185520;19;20022;-75
2022/01/26 21:36:40;;;;;;;39.63;20.98;;;5.60;91.30;;;;;;9184361;19;20007;-74
2022/01/26 21:39:47;;;;;;;46.22;21.27;;;5.60;91.30;;;;;;9179983;19;20447;-75
2022/01/26 21:42:53;;;;;;;48.42;21.95;;;5.60;91.30;;;;;;9179177;19;20011;-75
2022/01/26 21:45:58;;;;;;;45.13;22.33;;;5.60;91.30;;;;;;9182564;19;20057;-75
2022/01/26 21:49:03;;;;;;;41.80;21.00;;;5.60;91.30;;;;;;9182582;19;20094;-75
2022/01/26 21:52:11;;;;;;;45.13;21.63;;;5.60;91.30;;;;;;9184922;19;20349;-76